Preview of NWS' New Version of Forecast
This preview is not operational and should not be used for support decisions.

Terminal Aerodrome Forecast (TAF)

Issued by National Weather Service (NWS)

                            
000
FTAK31 PAFC 151138
TAFADL
TAF
PADL 151138Z 1512/1612 VRB02KT P6SM -RA BKN008 OVC015
      TEMPO 1512/1516 4SM -RA BR
     FM151600 VRB05KT P6SM -SHRA SCT015 OVC025
     FM152000 22009G17KT P6SM -SHRA OVC025
     FM160600 VRB04KT P6SM BKN050=